EDDL Airport Information

Runway Information
Runway 05R Length 9842 ft width 148 ft
Elevation 121 ft Threshold 984 ft Heading 53
Runway 23L Length 9842 ft Width 148 ft
Elevation 138 ft Threshold 984 ft Heading 233
Runway 05L Length 8858 ft width 148 ft
Elevation 116 ft Threshold 984 ft Heading 53
Runway 23R Length 8858 ft Width 148 ft
Elevation 124 ft Threshold 984 ft Heading 233
Airport Frequencies
Type ACC Name LANGEN RAD Frequency 128.55 MHZ
Type APP Name DIR Frequency 128.65 MHZ
Type ATIS Name ATIS Frequency 123.775 MHZ
Type CLD Name CLNC DEL Frequency 121.775 MHZ
Type GND Name GND Frequency 121.9 MHZ
Type INFO Name LANGEN INF Frequency 129.875 MHZ
Type MISC Name DE ICING Frequency 135.225 MHZ
Type TWR Name TWR Frequency 118.3 MHZ
Airport Navaids
Type VOR-DME Name Dusseldorf Frequency 115150 KHZ
Airport Weather Information & NOTAM
ADDS - METARS form results

(2301 UTC 18 August 2022)
Data provider http://aviationweather.gov/metar/data/
 
METAR text: EDDL 182250Z AUTO 08003KT CAVOK 18/16 Q1013 NOSIG
Conditions at: EDDL (DUESSELDORF , DE) observed 2250 UTC 18 August 2022
Temperature: 18.0°C (64°F)
Dewpoint: 16.0°C (61°F) [RH = 88%]
Pressure (altimeter): 29.91 inches Hg (1013.0 mb)
Winds: from the E (80 degrees) at 3 MPH (3 knots; 1.5 m/s)
Visibility: 6 or more miles (10+ km)
Ceiling: ceiling and visibility are OK
Clouds: unknown
Weather: no significant weather observed at this time

METAR text: EDDL 182220Z AUTO 01002KT CAVOK 18/15 Q1013 NOSIG
Conditions at: EDDL (DUESSELDORF , DE) observed 2220 UTC 18 August 2022
Temperature: 18.0°C (64°F)
Dewpoint: 15.0°C (59°F) [RH = 83%]
Pressure (altimeter): 29.91 inches Hg (1013.0 mb)
Winds: from the N (10 degrees) at 2 MPH (2 knots; 1.0 m/s)
Visibility: 6 or more miles (10+ km)
Ceiling: ceiling and visibility are OK
Clouds: unknown
Weather: no significant weather observed at this time

Forecast for: EDDL (DUESSELDORF , DE)
Text: TAF EDDL 181700Z 1818/1924 35005KT CAVOK
Forecast period: 1800 to 2100 UTC 18 August 2022
Forecast type: FROM: standard forecast or significant change
Winds: from the N (350 degrees) at 6 MPH (5 knots; 2.6 m/s)
Visibility: 6 or more miles (10+ km)
Ceiling: unknown
Clouds: missing
Weather: NSW  (no significant weather)
Text: BECMG 1821/1824 VRB02KT
Forecast period: 2100 UTC 18 August 2022 to 0600 UTC 19 August 2022
Forecast type: BECOMING: Conditions expected to become as follows by 0000 UTC 19 August 2022
Winds: variable direction winds at 2 MPH (2 knots; 1.0 m/s)
Visibility: 6 or more miles (10+ km)
Ceiling: unknown
Clouds: missing
Weather: NSW  (no significant weather)
Text: BECMG 1906/1909 27007KT
Forecast period: 0600 UTC 19 August 2022 to 0000 UTC 20 August 2022
Forecast type: BECOMING: Conditions expected to become as follows by 0900 UTC 19 August 2022
Winds: from the W (270 degrees) at 8 MPH (7 knots; 3.6 m/s)
Visibility: 6 or more miles (10+ km)
Ceiling: unknown
Clouds: missing
Weather: NSW  (no significant weather)